createdAt,value
2022-12-26T00:00:20.240Z,96774.00
2022-12-26T00:02:48.060Z,96789.75
2022-12-26T00:05:15.986Z,96790.88
2022-12-26T00:07:45.772Z,96794.41
2022-12-26T00:10:13.563Z,96802.34
2022-12-26T00:12:41.330Z,96798.69
2022-12-26T00:15:09.559Z,96795.50
2022-12-26T00:17:37.339Z,96793.38
2022-12-26T00:20:06.000Z,96799.41
2022-12-26T00:22:33.721Z,96795.16
2022-12-26T00:25:03.118Z,96792.34
2022-12-26T00:27:30.935Z,96802.78
2022-12-26T00:29:58.740Z,96804.09
2022-12-26T00:32:26.606Z,96797.91
2022-12-26T00:34:54.434Z,96813.47
2022-12-26T00:37:22.267Z,96809.63
2022-12-26T00:39:50.071Z,96810.63
2022-12-26T00:42:19.431Z,96804.72
2022-12-26T00:44:47.138Z,96802.94
2022-12-26T00:47:14.997Z,96792.72
2022-12-26T00:50:14.212Z,96789.91
2022-12-26T00:52:31.099Z,96789.41
2022-12-26T00:54:58.928Z,96792.72
2022-12-26T00:57:28.188Z,96794.66
2022-12-26T00:59:55.929Z,96788.47
2022-12-26T01:02:39.114Z,96790.91
2022-12-26T01:05:08.538Z,96789.00
2022-12-26T01:08:23.381Z,96796.03
2022-12-26T01:10:25.185Z,96793.31
2022-12-26T01:12:54.667Z,96806.13
2022-12-26T01:15:22.410Z,96802.56
2022-12-26T01:17:50.285Z,96796.56
2022-12-26T01:20:18.091Z,96805.66
2022-12-26T01:22:46.434Z,96803.38
2022-12-26T01:25:14.609Z,96804.25
2022-12-26T01:27:42.750Z,96802.50
2022-12-26T01:30:12.905Z,96810.31
2022-12-26T01:32:40.635Z,96794.41
2022-12-26T01:35:08.973Z,96797.31
2022-12-26T01:37:36.966Z,96803.94
2022-12-26T01:40:05.135Z,96804.28
2022-12-26T01:42:38.953Z,96809.75
2022-12-26T01:45:08.948Z,96812.03
2022-12-26T01:47:48.470Z,96821.75
2022-12-26T01:50:29.119Z,96817.47
2022-12-26T01:52:59.558Z,96823.84
2022-12-26T01:55:28.952Z,96830.69
2022-12-26T01:57:59.491Z,96824.56
2022-12-26T02:00:27.406Z,96827.56
2022-12-26T02:03:14.757Z,96826.31
2022-12-26T02:05:44.746Z,96813.00
2022-12-26T02:08:15.602Z,96792.19
2022-12-26T02:10:50.305Z,96801.31
2022-12-26T02:13:19.513Z,96814.03
2022-12-26T02:15:48.485Z,96807.72
2022-12-26T02:18:17.647Z,96809.00
2022-12-26T02:20:56.717Z,96810.09
2022-12-26T02:24:01.982Z,96811.09
2022-12-26T02:26:52.854Z,96764.59
2022-12-26T02:30:08.201Z,96803.78
2022-12-26T02:32:55.562Z,96789.28
2022-12-26T02:35:37.514Z,96802.06
2022-12-26T02:38:18.291Z,96805.25
2022-12-26T02:40:55.298Z,96792.13
2022-12-26T02:43:31.214Z,96784.47
2022-12-26T02:46:26.130Z,96810.19
2022-12-26T02:49:00.191Z,96801.19
2022-12-26T02:52:01.294Z,96815.41
2022-12-26T02:54:52.029Z,96817.41
2022-12-26T02:57:40.417Z,96820.50
2022-12-26T03:00:31.041Z,96827.72
2022-12-26T03:03:21.558Z,96810.56
2022-12-26T03:06:11.661Z,96818.56
2022-12-26T03:09:00.493Z,96821.69
2022-12-26T03:11:51.741Z,96823.13
2022-12-26T03:14:24.274Z,96836.00
2022-12-26T03:17:13.921Z,96835.03
2022-12-26T03:19:58.389Z,96826.97
2022-12-26T03:22:33.605Z,96822.66
2022-12-26T03:25:21.097Z,96828.66
2022-12-26T03:27:48.861Z,96827.69
2022-12-26T03:30:34.186Z,96828.31
2022-12-26T03:33:01.937Z,96827.75
2022-12-26T03:35:32.801Z,96823.88
2022-12-26T03:38:08.069Z,96821.59
2022-12-26T03:41:11.421Z,96815.50
2022-12-26T03:44:38.607Z,96811.38
2022-12-26T03:47:35.284Z,96799.97
2022-12-26T03:50:28.182Z,96804.66
2022-12-26T03:53:23.851Z,96808.97
2022-12-26T03:56:15.860Z,96808.13
2022-12-26T03:59:08.221Z,96807.09
2022-12-26T04:01:55.730Z,96815.50
2022-12-26T04:04:43.232Z,96805.28
2022-12-26T04:07:33.091Z,96807.91
2022-12-26T04:10:28.792Z,96815.50
2022-12-26T04:13:16.648Z,96813.84
2022-12-26T04:16:06.493Z,96799.94
2022-12-26T04:18:57.781Z,96814.06
2022-12-26T04:21:49.760Z,96793.19
2022-12-26T04:24:41.336Z,96818.16
2022-12-26T04:27:33.065Z,96810.59
2022-12-26T04:30:18.532Z,96814.44
2022-12-26T04:33:06.391Z,96810.19
2022-12-26T04:35:56.347Z,96805.06
2022-12-26T04:38:45.875Z,96800.34
2022-12-26T04:41:32.524Z,96801.56
2022-12-26T04:44:06.527Z,96806.50
2022-12-26T04:46:36.632Z,96805.88
2022-12-26T04:49:23.806Z,96796.47
2022-12-26T04:51:52.359Z,96794.63
2022-12-26T04:54:20.315Z,96777.84
2022-12-26T04:56:48.090Z,96780.91
2022-12-26T04:59:17.971Z,96782.53
2022-12-26T05:02:03.688Z,96767.22
2022-12-26T05:04:48.905Z,96781.75
2022-12-26T05:07:38.329Z,96771.50
2022-12-26T05:10:08.946Z,96787.69
2022-12-26T05:12:36.653Z,96801.81
2022-12-26T05:15:06.689Z,96793.81
2022-12-26T05:17:51.779Z,96790.50
2022-12-26T05:20:37.210Z,96795.25
2022-12-26T05:23:23.049Z,96793.38
2022-12-26T05:26:08.152Z,96809.56
2022-12-26T05:28:45.647Z,96810.78
2022-12-26T05:31:16.895Z,96811.00
2022-12-26T05:34:02.742Z,96794.19
2022-12-26T05:36:34.702Z,96803.63
2022-12-26T05:39:02.898Z,96788.69
2022-12-26T05:41:30.758Z,96809.75
2022-12-26T05:43:58.508Z,96809.75
2022-12-26T05:46:27.885Z,96815.06
2022-12-26T05:48:55.753Z,96815.66
2022-12-26T05:51:23.584Z,96815.88
2022-12-26T05:53:52.627Z,96822.22
2022-12-26T05:56:21.156Z,96824.88
2022-12-26T05:58:49.266Z,96826.56
2022-12-26T06:01:19.899Z,96816.31
2022-12-26T06:03:50.557Z,96817.50
2022-12-26T06:06:19.257Z,96801.94
2022-12-26T06:08:49.209Z,96801.53
2022-12-26T06:11:17.406Z,96798.28
2022-12-26T06:13:45.639Z,96809.28
2022-12-26T06:16:15.302Z,96787.38
2022-12-26T06:18:43.548Z,96795.22
2022-12-26T06:21:14.963Z,96796.25
2022-12-26T06:23:43.209Z,96789.09
2022-12-26T06:26:12.639Z,96792.56
2022-12-26T06:28:41.960Z,96791.31
2022-12-26T06:31:12.586Z,96800.72
2022-12-26T06:33:40.405Z,96789.44
2022-12-26T06:36:11.046Z,96791.91
2022-12-26T06:38:40.554Z,96790.28
2022-12-26T06:41:09.832Z,96789.69
2022-12-26T06:43:37.930Z,96787.63
2022-12-26T06:46:08.097Z,96778.84
2022-12-26T06:48:39.476Z,96780.28
2022-12-26T06:51:10.539Z,96777.59
2022-12-26T06:53:40.154Z,96757.94
2022-12-26T06:56:09.311Z,96770.22
2022-12-26T06:58:38.047Z,96771.84
2022-12-26T07:01:07.307Z,96767.13
2022-12-26T07:03:35.811Z,96772.44
2022-12-26T07:06:05.450Z,96764.25
2022-12-26T07:08:33.396Z,96758.94
2022-12-26T07:11:02.519Z,96759.56
2022-12-26T07:13:30.611Z,96765.09
2022-12-26T07:16:00.750Z,96770.03
2022-12-26T07:18:28.878Z,96764.50
2022-12-26T07:20:56.699Z,96754.88
2022-12-26T07:23:24.500Z,96760.81
2022-12-26T07:25:52.665Z,96771.66
2022-12-26T07:28:21.740Z,96762.25
2022-12-26T07:30:49.999Z,96749.56
2022-12-26T07:33:18.381Z,96753.00
2022-12-26T07:35:47.908Z,96747.28
2022-12-26T07:38:15.758Z,96743.84
2022-12-26T07:40:43.528Z,96754.88
2022-12-26T07:43:11.288Z,96765.94
2022-12-26T07:45:45.507Z,96765.53
2022-12-26T07:48:13.845Z,96759.97
2022-12-26T07:50:42.193Z,96766.34
2022-12-26T07:53:09.993Z,96772.28
2022-12-26T07:55:38.165Z,96766.53
2022-12-26T07:58:05.916Z,96773.28
2022-12-26T08:00:33.755Z,96750.56
2022-12-26T08:03:07.812Z,96766.91
2022-12-26T08:05:36.346Z,96761.72
2022-12-26T08:08:04.750Z,96749.03
2022-12-26T08:10:32.596Z,96763.38
2022-12-26T08:13:00.426Z,96764.34
2022-12-26T08:15:28.246Z,96756.72
2022-12-26T08:17:56.312Z,96763.06
2022-12-26T08:20:25.558Z,96760.78
2022-12-26T08:22:53.319Z,96766.19
2022-12-26T08:25:22.026Z,96772.75
2022-12-26T08:27:50.279Z,96756.56
2022-12-26T08:30:18.650Z,96759.72
2022-12-26T08:32:46.681Z,96750.84
2022-12-26T08:35:14.486Z,96758.38
2022-12-26T08:37:43.641Z,96751.91
2022-12-26T08:40:12.837Z,96757.69
2022-12-26T08:43:03.035Z,96757.84
2022-12-26T08:45:28.647Z,96757.03
2022-12-26T08:47:57.061Z,96757.88
2022-12-26T08:50:24.871Z,96753.59
2022-12-26T08:52:54.175Z,96750.59
2022-12-26T08:55:21.966Z,96743.69
2022-12-26T08:57:49.896Z,96748.00
2022-12-26T09:00:18.692Z,96753.53
2022-12-26T09:02:46.956Z,96745.63
2022-12-26T09:05:14.861Z,96756.84
2022-12-26T09:07:43.016Z,96753.19
2022-12-26T09:10:12.496Z,96740.94
2022-12-26T09:12:40.191Z,96760.66
2022-12-26T09:15:08.636Z,96763.59
2022-12-26T09:17:36.456Z,96755.88
2022-12-26T09:20:04.824Z,96747.16
2022-12-26T09:22:49.987Z,96760.81
2022-12-26T09:25:19.329Z,96776.97
2022-12-26T09:27:47.324Z,96766.91
2022-12-26T09:30:15.973Z,96781.47
2022-12-26T09:32:44.069Z,96784.59
2022-12-26T09:35:11.925Z,96779.13
2022-12-26T09:37:39.613Z,96784.84
2022-12-26T09:40:16.036Z,96770.00
2022-12-26T09:42:57.903Z,96784.63
2022-12-26T09:45:34.417Z,96796.94
2022-12-26T09:48:07.806Z,96803.78
2022-12-26T09:50:43.032Z,96803.78
2022-12-26T09:53:16.821Z,96813.53
2022-12-26T09:55:49.982Z,96814.91
2022-12-26T09:58:26.865Z,96829.63
2022-12-26T10:00:59.801Z,96831.81
2022-12-26T10:03:28.636Z,96828.00
2022-12-26T10:06:10.492Z,96846.53
2022-12-26T10:08:49.971Z,96848.63
2022-12-26T10:11:25.607Z,96842.16
2022-12-26T10:14:00.843Z,96846.88
2022-12-26T10:16:47.114Z,96841.78
2022-12-26T10:19:32.509Z,96833.63
2022-12-26T10:22:13.686Z,96823.94
2022-12-26T10:24:43.785Z,96827.91
2022-12-26T10:27:17.869Z,96839.31
2022-12-26T10:29:56.521Z,96842.38
2022-12-26T10:32:30.917Z,96841.03
2022-12-26T10:35:00.599Z,96839.03
2022-12-26T10:37:32.830Z,96857.53
2022-12-26T10:40:07.107Z,96848.09
2022-12-26T10:42:38.181Z,96866.16
2022-12-26T10:45:16.209Z,96869.41
2022-12-26T10:47:46.665Z,96891.69
2022-12-26T10:50:20.284Z,96881.16
2022-12-26T10:52:52.067Z,96888.75
2022-12-26T10:55:28.417Z,96891.53
2022-12-26T10:58:01.900Z,96910.94
2022-12-26T11:00:31.302Z,96913.50
2022-12-26T11:03:07.859Z,96917.81
2022-12-26T11:08:28.152Z,96943.03
2022-12-26T11:11:05.685Z,96919.72
2022-12-26T11:13:38.416Z,96943.28
2022-12-26T11:16:09.041Z,96963.03
2022-12-26T11:18:40.206Z,96930.97
2022-12-26T11:21:14.044Z,96935.94
2022-12-26T11:23:41.980Z,96947.88
2022-12-26T11:26:22.722Z,96942.94
2022-12-26T11:29:06.776Z,96916.31
2022-12-26T11:31:36.293Z,96948.72
2022-12-26T11:34:09.688Z,96951.59
2022-12-26T11:36:40.419Z,96934.81
2022-12-26T11:39:24.184Z,96938.22
2022-12-26T11:41:52.859Z,96940.19
2022-12-26T11:44:26.037Z,96959.06
2022-12-26T11:47:00.200Z,96954.97
2022-12-26T11:49:33.218Z,96962.19
2022-12-26T11:52:02.998Z,96956.03
2022-12-26T11:54:35.629Z,96950.97
2022-12-26T11:57:18.114Z,96936.41
2022-12-26T11:59:47.165Z,96956.69
2022-12-26T12:02:29.256Z,96945.63
2022-12-26T12:05:01.911Z,96953.84
2022-12-26T12:07:54.856Z,96948.88
2022-12-26T12:10:53.971Z,96963.69
2022-12-26T12:13:46.744Z,96970.47
2022-12-26T12:16:36.854Z,96935.44
2022-12-26T12:19:19.080Z,96965.94
2022-12-26T12:21:48.250Z,96961.03
2022-12-26T12:24:31.123Z,96972.75
2022-12-26T12:27:05.496Z,96945.06
2022-12-26T12:29:49.269Z,96968.63
2022-12-26T12:32:22.424Z,96954.63
2022-12-26T12:35:10.119Z,96954.81
2022-12-26T12:37:50.393Z,96951.97
2022-12-26T12:40:30.959Z,96968.84
2022-12-26T12:43:09.533Z,96970.25
2022-12-26T12:45:48.855Z,96965.31
2022-12-26T12:48:30.414Z,96952.81
2022-12-26T12:51:06.684Z,96953.28
2022-12-26T12:53:55.031Z,96955.31
2022-12-26T12:56:36.975Z,96965.59
2022-12-26T12:59:18.510Z,96935.69
2022-12-26T13:01:50.887Z,96948.25
2022-12-26T13:04:24.889Z,96964.38
2022-12-26T13:06:58.160Z,96972.00
2022-12-26T13:09:31.371Z,96972.81
2022-12-26T13:12:02.680Z,96962.81
2022-12-26T13:14:34.646Z,96952.47
2022-12-26T13:17:08.712Z,96950.25
2022-12-26T13:19:42.563Z,96946.81
2022-12-26T13:22:17.997Z,96961.75
2022-12-26T13:24:49.648Z,96974.06
2022-12-26T13:27:22.323Z,96970.97
2022-12-26T13:29:50.757Z,96963.00
2022-12-26T13:32:22.691Z,96966.91
2022-12-26T13:34:52.030Z,96954.81
2022-12-26T13:38:04.179Z,96913.88
2022-12-26T13:40:33.669Z,96956.09
2022-12-26T13:43:26.170Z,96935.97
2022-12-26T13:45:57.525Z,96950.75
2022-12-26T13:49:08.115Z,96946.00
2022-12-26T13:52:00.451Z,96944.19
2022-12-26T13:54:31.750Z,96944.25
2022-12-26T13:57:31.602Z,96936.06
2022-12-26T14:00:07.235Z,96947.97
2022-12-26T14:03:21.623Z,96969.72
2022-12-26T14:06:15.499Z,96966.41
2022-12-26T14:08:55.582Z,96977.72
2022-12-26T14:11:42.259Z,96972.97
2022-12-26T14:14:23.949Z,96971.13
2022-12-26T14:16:58.029Z,96975.88
2022-12-26T14:19:41.830Z,96978.31
2022-12-26T14:22:16.847Z,96975.00
2022-12-26T14:24:57.580Z,96968.03
2022-12-26T14:27:34.908Z,96973.31
2022-12-26T14:30:20.884Z,96958.19
2022-12-26T14:33:13.929Z,96975.38
2022-12-26T14:35:54.369Z,96955.69
2022-12-26T14:38:38.822Z,96955.69
2022-12-26T14:41:09.541Z,96946.25
2022-12-26T14:43:37.909Z,96955.63
2022-12-26T14:46:35.067Z,96956.91
2022-12-26T14:49:22.760Z,96956.91
2022-12-26T14:51:51.349Z,96931.06
2022-12-26T14:54:37.920Z,96944.66
2022-12-26T14:57:41.214Z,96939.91
2022-12-26T15:00:24.972Z,96944.88
2022-12-26T15:03:20.067Z,96948.78
2022-12-26T15:05:51.398Z,96946.75
2022-12-26T15:08:45.073Z,96946.34
2022-12-26T15:11:47.514Z,96935.25
2022-12-26T15:14:57.818Z,96945.13
2022-12-26T15:17:37.349Z,96970.97
2022-12-26T15:20:41.468Z,96961.97
2022-12-26T15:23:36.236Z,96962.31
2022-12-26T15:26:25.521Z,96963.53
2022-12-26T15:29:15.632Z,96958.66
2022-12-26T15:31:52.830Z,96959.44
2022-12-26T15:34:36.700Z,96947.13
2022-12-26T15:37:13.716Z,96951.84
2022-12-26T15:39:50.685Z,96946.50
2022-12-26T15:42:34.533Z,96938.56
2022-12-26T15:45:21.711Z,96913.97
2022-12-26T15:47:59.828Z,96937.31
2022-12-26T15:50:30.709Z,96920.31
2022-12-26T15:53:11.871Z,96907.78
2022-12-26T15:56:01.513Z,96915.59
2022-12-26T15:58:51.087Z,96929.97
2022-12-26T16:01:38.007Z,96929.97
2022-12-26T16:04:12.091Z,96933.63
2022-12-26T16:06:55.161Z,96938.19
2022-12-26T16:09:35.584Z,96941.28
2022-12-26T16:12:04.211Z,96926.28
2022-12-26T16:14:34.034Z,96909.50
2022-12-26T16:17:18.730Z,96910.75
2022-12-26T16:19:48.148Z,96929.19
2022-12-26T16:22:38.438Z,96934.53
2022-12-26T16:25:09.457Z,96931.88
2022-12-26T16:27:39.362Z,96927.97
2022-12-26T16:30:13.831Z,96926.91
2022-12-26T16:32:44.218Z,96904.75
2022-12-26T16:35:20.678Z,96923.59
2022-12-26T16:37:49.910Z,96936.13
2022-12-26T16:40:26.000Z,96933.63
2022-12-26T16:43:00.600Z,96945.53
2022-12-26T16:45:31.586Z,96964.00
2022-12-26T16:47:59.822Z,96979.56
2022-12-26T16:50:32.708Z,96965.63
2022-12-26T16:53:15.232Z,96957.81
2022-12-26T16:55:49.453Z,96963.56
2022-12-26T16:58:21.940Z,96971.78
2022-12-26T17:01:09.209Z,96977.03
2022-12-26T17:03:42.218Z,96999.53
2022-12-26T17:06:15.569Z,97006.72
2022-12-26T17:08:50.535Z,96963.88
2022-12-26T17:11:28.791Z,96948.09
2022-12-26T17:13:57.836Z,96952.47
2022-12-26T17:16:27.888Z,96975.84
2022-12-26T17:18:56.597Z,97024.50
2022-12-26T17:21:30.320Z,97026.66
2022-12-26T17:24:16.281Z,97010.59
2022-12-26T17:26:50.768Z,96986.28
2022-12-26T17:29:47.794Z,97016.91
2022-12-26T17:32:27.747Z,97012.41
2022-12-26T17:34:55.912Z,97016.88
2022-12-26T17:37:28.435Z,97027.38
2022-12-26T17:40:16.223Z,97026.53
2022-12-26T17:42:49.253Z,97013.94
2022-12-26T17:45:18.933Z,97013.09
2022-12-26T17:47:47.137Z,97008.19
2022-12-26T17:50:15.107Z,97011.72
2022-12-26T17:52:43.049Z,97005.47
2022-12-26T17:55:17.682Z,96984.69
2022-12-26T17:57:47.015Z,96972.81
2022-12-26T18:00:17.701Z,96969.47
2022-12-26T18:02:48.335Z,96974.00
2022-12-26T18:05:17.051Z,96993.72
2022-12-26T18:07:45.953Z,96992.34
2022-12-26T18:10:19.253Z,97017.81
2022-12-26T18:12:48.909Z,97025.41
2022-12-26T18:15:17.237Z,97022.75
2022-12-26T18:17:45.987Z,97032.59
2022-12-26T18:20:18.112Z,97016.53
2022-12-26T18:22:47.582Z,97027.63
2022-12-26T18:25:16.618Z,97033.84
2022-12-26T18:27:45.240Z,97018.59
2022-12-26T18:30:17.370Z,97018.97
2022-12-26T18:32:48.851Z,97006.25
2022-12-26T18:35:17.196Z,97007.31
2022-12-26T18:37:48.082Z,96990.75
2022-12-26T18:40:28.431Z,96982.19
2022-12-26T18:42:56.713Z,96999.13
2022-12-26T18:45:26.158Z,96980.56
2022-12-26T18:47:54.027Z,97021.19
2022-12-26T18:50:22.094Z,97009.75
2022-12-26T18:52:53.518Z,97023.50
2022-12-26T18:55:22.360Z,97020.03
2022-12-26T18:57:50.172Z,97013.56
2022-12-26T19:00:19.596Z,97026.59
2022-12-26T19:02:49.537Z,97024.31
2022-12-26T19:05:20.010Z,97032.34
2022-12-26T19:07:48.419Z,97050.84
2022-12-26T19:10:17.925Z,97069.34
2022-12-26T19:12:45.728Z,97056.44
2022-12-26T19:15:14.680Z,97045.91
2022-12-26T19:17:43.617Z,97047.13
2022-12-26T19:20:19.188Z,97040.91
2022-12-26T19:22:47.859Z,97036.41
2022-12-26T19:25:16.642Z,97076.03
2022-12-26T19:27:44.545Z,97073.78
2022-12-26T19:30:13.421Z,97079.13
2022-12-26T19:32:43.228Z,97061.88
2022-12-26T19:35:13.751Z,97073.16
2022-12-26T19:37:42.014Z,97079.06
2022-12-26T19:40:11.549Z,97094.91
2022-12-26T19:42:39.815Z,97100.13
2022-12-26T19:45:09.646Z,97093.56
2022-12-26T19:47:37.799Z,97102.81
2022-12-26T19:50:07.518Z,97111.25
2022-12-26T19:52:38.274Z,97096.09
2022-12-26T19:55:07.397Z,97071.81
2022-12-26T19:57:37.223Z,97074.03
2022-12-26T20:00:07.365Z,97100.72
2022-12-26T20:02:35.262Z,97109.94
2022-12-26T20:05:03.098Z,97105.88
2022-12-26T20:07:30.926Z,97118.47
2022-12-26T20:10:00.010Z,97116.22
2022-12-26T20:12:27.766Z,97106.38
2022-12-26T20:14:55.619Z,97114.63
2022-12-26T20:17:23.449Z,97094.91
2022-12-26T20:19:52.165Z,97101.91
2022-12-26T20:22:19.955Z,97085.50
2022-12-26T20:24:48.217Z,97094.75
2022-12-26T20:27:17.809Z,97092.06
2022-12-26T20:29:45.619Z,97101.91
2022-12-26T20:32:13.394Z,97090.41
2022-12-26T20:34:41.225Z,97096.97
2022-12-26T20:37:08.952Z,97100.44
2022-12-26T20:39:36.856Z,97102.31
2022-12-26T20:42:04.761Z,97116.25
2022-12-26T20:44:33.904Z,97121.34
2022-12-26T20:47:01.713Z,97141.66
2022-12-26T20:49:30.083Z,97150.72
2022-12-26T20:51:57.851Z,97167.97
2022-12-26T20:54:25.844Z,97183.34
2022-12-26T20:56:53.735Z,97205.69
2022-12-26T20:59:21.587Z,97209.16
2022-12-26T21:01:50.857Z,97231.94
2022-12-26T21:04:22.332Z,97259.03
2022-12-26T21:06:50.694Z,97257.97
2022-12-26T21:09:19.130Z,97264.31
2022-12-26T21:11:47.144Z,97251.19
2022-12-26T21:14:17.260Z,97248.72
2022-12-26T21:16:48.379Z,97248.31
2022-12-26T21:19:18.045Z,97261.00
2022-12-26T21:21:48.369Z,97251.09
2022-12-26T21:24:19.599Z,97266.94
2022-12-26T21:26:48.460Z,97276.75
2022-12-26T21:29:20.652Z,97272.22
2022-12-26T21:31:49.154Z,97265.03
2022-12-26T21:34:20.450Z,97272.41
2022-12-26T21:37:02.416Z,97258.88
2022-12-26T21:39:30.562Z,97281.25
2022-12-26T21:41:58.388Z,97226.97
2022-12-26T21:44:26.202Z,97275.09
2022-12-26T21:46:54.179Z,97253.84
2022-12-26T21:49:23.461Z,97284.09
2022-12-26T21:51:51.208Z,97270.50
2022-12-26T21:54:36.284Z,97286.97
2022-12-26T21:57:04.032Z,97274.84
2022-12-26T21:59:49.221Z,97287.16
2022-12-26T22:02:30.983Z,97289.03
2022-12-26T22:05:00.619Z,97292.09
2022-12-26T22:07:28.767Z,97294.16
2022-12-26T22:09:56.883Z,97297.00
2022-12-26T22:12:41.863Z,97299.28
2022-12-26T22:15:31.000Z,97297.44
2022-12-26T22:17:59.016Z,97306.03
2022-12-26T22:20:28.165Z,97299.50
2022-12-26T22:22:56.566Z,97304.81
2022-12-26T22:25:24.292Z,97313.00
2022-12-26T22:27:52.071Z,97306.41
2022-12-26T22:30:19.891Z,97306.81
2022-12-26T22:32:47.600Z,97303.75
2022-12-26T22:35:18.807Z,97322.88
2022-12-26T22:37:48.283Z,97322.03
2022-12-26T22:40:16.296Z,97328.38
2022-12-26T22:42:44.083Z,97328.13
2022-12-26T22:45:12.125Z,97325.44
2022-12-26T22:47:39.883Z,97343.09
2022-12-26T22:50:08.755Z,97330.38
2022-12-26T22:52:36.536Z,97343.34
2022-12-26T22:55:06.945Z,97344.13
2022-12-26T22:57:35.074Z,97344.50
2022-12-26T23:00:10.995Z,97349.84
2022-12-26T23:02:39.093Z,97347.78
2022-12-26T23:05:12.174Z,97359.25
2022-12-26T23:07:41.156Z,97350.63
2022-12-26T23:10:19.353Z,97359.25
2022-12-26T23:12:47.990Z,97360.25
2022-12-26T23:15:18.221Z,97348.78
2022-12-26T23:18:07.641Z,97327.13
2022-12-26T23:20:55.054Z,97346.16
2022-12-26T23:23:23.739Z,97352.75
2022-12-26T23:25:53.106Z,97342.00
2022-12-26T23:28:38.449Z,97356.78
2022-12-26T23:31:06.238Z,97376.09
2022-12-26T23:33:34.033Z,97383.91
2022-12-26T23:36:01.809Z,97382.00
2022-12-26T23:38:29.591Z,97378.97
2022-12-26T23:40:58.779Z,97382.06
2022-12-26T23:43:26.539Z,97356.94
2022-12-26T23:45:54.308Z,97380.72
2022-12-26T23:48:22.020Z,97375.94
2022-12-26T23:50:50.261Z,97379.63
2022-12-26T23:53:21.078Z,97392.88
2022-12-26T23:55:48.833Z,97390.28
2022-12-26T23:58:17.912Z,97389.66
